Time;durP1;ratioP1;P1;durP2;ratioP2;P2;SDS_P1;SDS_P2;PMS_P1;PMS_P2;Temp;Humidity;BMP_temperature;BMP_pressure;BME280_temperature;BME280_humidity;BME280_pressure;Samples;Min_cycle;Max_cycle;Signal;HPM_P1;HPM_P2
2022/09/12 00:00:21;;;;;;;12.45;9.70;;;;;;;13.84;100.00;98599.91;1791119;80;21022;-77
2022/09/12 00:02:55;;;;;;;10.38;9.28;;;;;;;13.85;100.00;98602.46;1791129;80;22297;-77
2022/09/12 00:05:21;;;;;;;13.30;9.60;;;;;;;13.84;100.00;98593.30;1791209;80;21070;-77
2022/09/12 00:07:49;;;;;;;15.18;9.40;;;;;;;13.82;100.00;98588.56;1791047;80;20987;-78
2022/09/12 00:10:16;;;;;;;9.70;8.70;;;;;;;13.84;100.00;98591.98;1790866;80;20963;-77
2022/09/12 00:12:44;;;;;;;9.35;8.38;;;;;;;13.85;100.00;98579.12;1790871;80;21584;-78
2022/09/12 00:15:12;;;;;;;12.15;10.28;;;;;;;13.86;100.00;98579.50;1790973;80;21180;-79
2022/09/12 00:17:39;;;;;;;13.00;9.15;;;;;;;13.88;100.00;98585.54;1791086;79;21053;-78
2022/09/12 00:20:08;;;;;;;12.03;9.63;;;;;;;13.85;100.00;98581.31;1793814;80;21574;-78
2022/09/12 00:22:35;;;;;;;12.40;9.48;;;;;;;13.86;100.00;98576.86;1793737;80;21466;-78
2022/09/12 00:25:02;;;;;;;10.38;9.43;;;;;;;13.87;100.00;98579.41;1794016;80;21595;-78
2022/09/12 00:27:29;;;;;;;10.20;9.20;;;;;;;13.86;100.00;98576.86;1794312;80;21373;-78
2022/09/12 00:29:55;;;;;;;10.70;9.20;;;;;;;13.86;100.00;98580.83;1793833;80;21069;-78
2022/09/12 00:32:22;;;;;;;14.20;9.83;;;;;;;13.86;100.00;98578.19;1794297;80;21013;-77
2022/09/12 00:34:48;;;;;;;12.90;10.08;;;;;;;13.89;100.00;98576.67;1793647;80;21056;-77
2022/09/12 00:37:15;;;;;;;11.30;10.05;;;;;;;13.89;100.00;98572.70;1794015;80;21022;-77
2022/09/12 00:39:41;;;;;;;12.37;10.48;;;;;;;13.86;100.00;98566.28;1793892;80;21172;-78
2022/09/12 00:42:10;;;;;;;13.18;9.70;;;;;;;13.88;100.00;98569.67;1793855;80;21077;-77
2022/09/12 00:44:42;;;;;;;14.43;10.13;;;;;;;13.89;100.00;98567.42;1794216;80;20990;-77
2022/09/12 00:47:17;;;;;;;10.63;9.60;;;;;;;13.91;100.00;98568.16;1793840;80;21533;-77
2022/09/12 00:50:04;;;;;;;10.75;9.13;;;;;;;13.90;100.00;98563.81;1792928;80;21735;-76
2022/09/12 00:52:45;;;;;;;11.00;9.10;;;;;;;13.87;100.00;98567.97;1794000;80;21133;-77
2022/09/12 00:55:20;;;;;;;12.70;8.38;;;;;;;13.82;100.00;98560.80;1793917;80;21098;-76
2022/09/12 00:57:55;;;;;;;9.30;8.40;;;;;;;13.79;100.00;98562.34;1793128;80;25519;-77
2022/09/12 01:00:24;;;;;;;10.45;9.25;;;;;;;13.77;100.00;98558.92;1793589;80;21088;-78
2022/09/12 01:03:01;;;;;;;10.58;8.48;;;;;;;13.74;100.00;98564.78;1793657;80;21061;-77
2022/09/12 01:05:27;;;;;;;9.98;7.92;;;;;;;13.70;100.00;98560.64;1793887;80;21256;-77
2022/09/12 01:07:55;;;;;;;10.53;8.65;;;;;;;13.69;100.00;98557.61;1793690;80;21042;-77
2022/09/12 01:10:21;;;;;;;9.30;8.40;;;;;;;13.69;100.00;98562.91;1793894;80;20979;-77
2022/09/12 01:12:48;;;;;;;10.05;8.40;;;;;;;13.64;100.00;98567.63;1794044;80;21085;-77
2022/09/12 01:15:14;;;;;;;9.70;8.63;;;;;;;13.59;100.00;98564.91;1793733;80;21148;-78
2022/09/12 01:18:10;;;;;;;9.05;8.10;;;;;;;13.54;100.00;98561.22;1793669;80;21073;-77
2022/09/12 01:21:12;;;;;;;9.48;7.67;;;;;;;13.50;100.00;98557.92;1793673;80;21378;-77
2022/09/12 01:23:50;;;;;;;9.05;8.08;;;;;;;13.48;100.00;98560.27;1793817;80;21002;-78
2022/09/12 01:26:39;;;;;;;10.08;8.30;;;;;;;13.47;100.00;98550.66;1793805;80;21592;-78
2022/09/12 01:29:40;;;;;;;12.63;7.55;;;;;;;13.46;100.00;98563.48;1794160;80;21068;-77
2022/09/12 01:32:24;;;;;;;10.05;8.05;;;;;;;13.42;100.00;98568.59;1793741;80;21108;-77
2022/09/12 01:35:08;;;;;;;11.75;7.70;;;;;;;13.40;100.00;98567.37;1793811;80;21030;-78
2022/09/12 01:37:48;;;;;;;8.25;7.17;;;;;;;13.37;100.00;98569.70;1793540;80;21104;-78
2022/09/12 01:40:32;;;;;;;7.30;6.70;;;;;;;13.35;100.00;98566.31;1793950;80;21017;-78
2022/09/12 01:43:17;;;;;;;8.73;6.53;;;;;;;13.30;100.00;98567.04;1793645;80;21054;-77
2022/09/12 01:45:47;;;;;;;9.73;6.30;;;;;;;13.27;100.00;98567.22;1793651;80;21905;-78
2022/09/12 01:48:22;;;;;;;8.00;6.58;;;;;;;13.25;100.00;98566.48;1788368;80;21057;-77
2022/09/12 01:51:12;;;;;;;5.75;5.00;;;;;;;13.19;100.00;98567.67;1793765;80;21085;-78
2022/09/12 01:53:43;;;;;;;4.17;3.87;;;;;;;13.14;100.00;98563.62;1793483;80;21022;-78
2022/09/12 01:56:21;;;;;;;4.40;4.00;;;;;;;13.05;100.00;98564.20;1793835;80;21121;-78
2022/09/12 01:59:11;;;;;;;5.00;3.65;;;;;;;12.98;100.00;98555.31;1793534;80;21127;-78
2022/09/12 02:01:45;;;;;;;4.10;3.80;;;;;;;12.95;100.00;98554.17;1793661;80;21116;-78
2022/09/12 02:04:16;;;;;;;3.58;3.33;;;;;;;12.93;100.00;98552.09;1791059;79;21065;-78
2022/09/12 02:07:09;;;;;;;3.90;3.55;;;;;;;12.93;100.00;98547.30;1793848;80;21152;-77
2022/09/12 02:09:47;;;;;;;6.85;4.08;;;;;;;12.92;100.00;98551.70;1793535;80;21057;-78
2022/09/12 02:12:19;;;;;;;4.35;4.00;;;;;;;12.91;100.00;98546.52;1793897;80;20991;-78
2022/09/12 02:14:51;;;;;;;4.33;3.92;;;;;;;12.90;100.00;98548.80;1793566;80;21113;-78
2022/09/12 02:17:21;;;;;;;4.40;4.10;;;;;;;12.88;100.00;98546.24;1793464;80;21647;-77
2022/09/12 02:20:02;;;;;;;4.47;3.92;;;;;;;12.88;100.00;98544.92;1789352;80;21038;-77
2022/09/12 02:22:29;;;;;;;5.30;4.12;;;;;;;12.89;100.00;98550.56;1788232;80;21022;-78
2022/09/12 02:24:59;;;;;;;4.67;3.60;;;;;;;12.91;100.00;98546.52;1787824;80;21788;-78
2022/09/12 02:27:51;;;;;;;3.90;3.70;;;;;;;12.92;100.00;98552.19;1787946;80;21515;-77
2022/09/12 02:30:18;;;;;;;5.97;4.00;;;;;;;12.91;100.00;98552.67;1787728;80;21073;-78
2022/09/12 02:33:03;;;;;;;9.85;4.33;;;;;;;12.88;100.00;98553.30;1788150;80;21148;-77
2022/09/12 02:35:38;;;;;;;;;;;;;;;12.84;100.00;98551.31;1790282;80;21062;-77
2022/09/12 02:38:08;;;;;;;3.40;3.10;;;;;;;12.82;100.00;98551.40;1771111;80;21104;-77
2022/09/12 02:40:35;;;;;;;3.37;3.08;;;;;;;12.79;100.00;98556.02;1767866;80;20988;-76
2022/09/12 02:43:03;;;;;;;4.55;2.98;;;;;;;12.76;100.00;98552.23;1771133;80;21133;-77
2022/09/12 02:45:33;;;;;;;5.92;3.08;;;;;;;12.71;100.00;98553.84;1770883;80;21072;-77
2022/09/12 02:48:27;;;;;;;3.08;2.40;;;;;;;12.71;100.00;98550.33;1771054;81;22070;-76
2022/09/12 02:50:53;;;;;;;2.75;2.60;;;;;;;12.68;100.00;98549.22;1782711;80;21221;-77
2022/09/12 02:53:21;;;;;;;2.58;2.47;;;;;;;12.64;100.00;98555.99;1782275;80;21476;-76
2022/09/12 02:55:49;;;;;;;2.60;2.40;;;;;;;12.59;100.00;98560.69;1782354;80;21024;-77
2022/09/12 02:58:19;;;;;;;2.55;2.45;;;;;;;12.55;100.00;98557.83;1782597;80;21146;-78
2022/09/12 03:00:57;;;;;;;4.33;2.40;;;;;;;12.50;100.00;98559.89;1782644;80;21058;-75
2022/09/12 03:03:51;;;;;;;4.53;2.40;;;;;;;12.45;100.00;98556.19;1782063;80;21940;-76
2022/09/12 03:06:37;;;;;;;2.47;2.27;;;;;;;12.42;100.00;98556.84;1782289;80;21102;-76
2022/09/12 03:09:33;;;;;;;3.00;1.85;;;;;;;12.41;100.00;98559.11;1782265;80;21091;-77
2022/09/12 03:12:12;;;;;;;3.25;2.40;;;;;;;12.37;100.00;98557.58;1782114;80;21153;-77
2022/09/12 03:15:08;;;;;;;3.08;2.87;;;;;;;12.35;100.00;98556.82;1782301;80;21514;-77
2022/09/12 03:18:07;;;;;;;2.67;2.47;;;;;;;12.32;100.00;98556.51;1782465;80;21141;-77
2022/09/12 03:21:06;;;;;;;3.37;2.30;;;;;;;12.32;100.00;98555.67;1785003;80;21105;-78
2022/09/12 03:23:55;;;;;;;2.40;2.20;;;;;;;12.32;100.00;98556.98;1785749;80;21050;-77
2022/09/12 03:26:33;;;;;;;2.08;1.90;;;;;;;12.29;100.00;98556.71;1785276;80;21059;-77
2022/09/12 03:29:01;;;;;;;2.35;2.25;;;;;;;12.29;100.00;98554.52;1785319;80;21086;-77
2022/09/12 03:31:27;;;;;;;6.22;2.27;;;;;;;12.31;100.00;98552.19;1785292;80;21138;-78
2022/09/12 03:33:54;;;;;;;4.67;2.20;;;;;;;12.34;100.00;98558.62;1785241;80;21055;-76
2022/09/12 03:36:27;;;;;;;2.58;2.10;;;;;;;12.36;100.00;98555.41;1785621;80;21058;-77
2022/09/12 03:38:53;;;;;;;2.65;2.20;;;;;;;12.36;100.00;98558.53;1785471;80;21047;-77
2022/09/12 03:41:20;;;;;;;2.62;2.27;;;;;;;12.32;100.00;98556.98;1785460;80;21102;-77
2022/09/12 03:43:46;;;;;;;3.12;2.08;;;;;;;12.30;100.00;98559.71;1785770;80;21137;-77
2022/09/12 03:46:13;;;;;;;2.20;2.00;;;;;;;12.32;100.00;98563.11;1785423;80;21079;-77
2022/09/12 03:48:40;;;;;;;2.27;2.12;;;;;;;12.33;100.00;98562.66;1785280;80;20999;-77
2022/09/12 03:51:09;;;;;;;1.87;1.77;;;;;;;12.34;100.00;98568.30;1785091;80;21075;-77
2022/09/12 03:53:35;;;;;;;1.57;1.47;;;;;;;12.34;100.00;98569.61;1785322;80;21000;-78
2022/09/12 03:56:08;;;;;;;2.15;1.50;;;;;;;12.28;100.00;98575.27;1785289;80;21392;-77
2022/09/12 03:58:35;;;;;;;1.25;1.15;;;;;;;12.13;100.00;98582.24;1785516;80;21031;-78
2022/09/12 04:01:13;;;;;;;2.60;1.30;;;;;;;11.99;100.00;98579.91;1785623;80;21061;-76
2022/09/12 04:03:45;;;;;;;1.80;0.90;;;;;;;11.90;100.00;98586.51;1785822;80;21091;-78
2022/09/12 04:06:14;;;;;;;1.45;0.88;;;;;;;11.86;100.00;98588.91;1785395;80;21059;-78
2022/09/12 04:08:42;;;;;;;1.35;0.85;;;;;;;11.77;100.00;98592.06;1785821;80;21090;-77
2022/09/12 04:11:12;;;;;;;1.15;0.78;;;;;;;11.73;100.00;98593.15;1785263;80;21047;-79
2022/09/12 04:13:42;;;;;;;0.72;0.70;;;;;;;11.69;100.00;98598.21;1785595;80;21641;-78
2022/09/12 04:16:09;;;;;;;0.60;0.50;;;;;;;11.65;100.00;98597.98;1785483;80;21059;-77
2022/09/12 04:18:35;;;;;;;0.93;0.70;;;;;;;11.63;100.00;98598.53;1785455;80;21023;-78
2022/09/12 04:21:07;;;;;;;1.55;0.70;;;;;;;11.63;100.00;98597.22;1785611;80;21198;-77
2022/09/12 04:23:34;;;;;;;0.68;0.60;;;;;;;11.67;100.00;98596.14;1785416;80;21129;-78
2022/09/12 04:26:01;;;;;;;1.35;0.50;;;;;;;11.66;99.65;98611.07;1785741;80;21115;-77
2022/09/12 04:28:28;;;;;;;0.75;0.50;;;;;;;11.60;99.07;98605.28;1785649;80;21003;-77
2022/09/12 04:30:55;;;;;;;1.67;0.50;;;;;;;11.57;98.23;98606.78;1785437;80;21550;-77
2022/09/12 04:33:23;;;;;;;4.87;0.40;;;;;;;11.52;97.66;98605.23;1785544;80;21748;-77
2022/09/12 04:35:50;;;;;;;0.40;0.40;;;;;;;11.46;97.02;98605.55;1783847;80;21141;-78
2022/09/12 04:38:16;;;;;;;0.50;0.50;;;;;;;11.39;96.45;98611.23;1785861;80;21099;-78
2022/09/12 04:40:42;;;;;;;0.70;0.50;;;;;;;11.32;95.86;98608.91;1785175;80;21071;-76
2022/09/12 04:43:09;;;;;;;1.65;0.60;;;;;;;11.26;95.53;98611.01;1785405;80;21035;-77
2022/09/12 04:45:35;;;;;;;1.85;0.90;;;;;;;11.20;95.61;98617.45;1785750;80;21125;-77
2022/09/12 04:48:02;;;;;;;4.12;1.00;;;;;;;11.17;95.61;98620.72;1785372;80;21043;-76
2022/09/12 04:50:28;;;;;;;1.22;1.12;;;;;;;11.10;95.45;98618.39;1785691;80;21099;-78
2022/09/12 04:52:55;;;;;;;1.05;0.95;;;;;;;11.10;95.71;98624.97;1785307;80;21040;-77
2022/09/12 04:55:24;;;;;;;1.12;0.88;;;;;;;11.09;95.30;98625.05;1785581;80;21058;-77
2022/09/12 04:57:51;;;;;;;1.57;1.10;;;;;;;11.05;94.91;98629.62;1785541;80;21103;-77
2022/09/12 05:00:17;;;;;;;1.35;0.90;;;;;;;11.02;94.88;98628.45;1785889;80;21094;-76
2022/09/12 05:02:44;;;;;;;2.60;1.10;;;;;;;10.99;94.71;98627.29;1785489;80;21059;-77
2022/09/12 05:05:11;;;;;;;1.50;1.10;;;;;;;10.97;94.89;98626.52;1785639;80;21193;-77
2022/09/12 05:07:39;;;;;;;1.32;1.17;;;;;;;10.96;95.06;98624.80;1785326;80;21094;-77
2022/09/12 05:10:07;;;;;;;1.82;1.00;;;;;;;10.98;95.27;98628.23;1785381;80;21145;-77
2022/09/12 05:12:35;;;;;;;1.10;1.00;;;;;;;11.02;95.32;98616.61;1785239;80;22181;-76
2022/09/12 05:15:03;;;;;;;1.10;1.05;;;;;;;11.05;95.50;98620.41;1785206;80;21499;-76
2022/09/12 05:17:30;;;;;;;2.65;1.10;;;;;;;11.06;95.63;98620.80;1785326;80;21873;-77
2022/09/12 05:19:57;;;;;;;1.85;1.40;;;;;;;11.11;95.78;98617.47;1785749;80;21090;-78
2022/09/12 05:22:24;;;;;;;2.95;1.25;;;;;;;11.17;95.52;98616.30;1786220;80;21254;-78
2022/09/12 05:24:51;;;;;;;1.52;1.32;;;;;;;11.22;95.49;98622.65;1785977;80;20971;-78
2022/09/12 05:27:17;;;;;;;4.00;1.57;;;;;;;11.20;95.41;98619.25;1786237;80;21019;-78
2022/09/12 05:29:44;;;;;;;1.50;1.30;;;;;;;11.20;95.50;98621.88;1785920;80;21042;-75
2022/09/12 05:32:11;;;;;;;5.35;2.20;;;;;;;11.20;95.60;98621.41;1785982;80;21070;-78
2022/09/12 05:34:39;;;;;;;3.50;1.47;;;;;;;11.23;95.70;98616.43;1785968;80;21763;-77
2022/09/12 05:37:05;;;;;;;1.05;0.95;;;;;;;11.27;95.62;98621.94;1785625;80;21050;-77
2022/09/12 05:39:32;;;;;;;1.57;1.07;;;;;;;11.26;95.38;98614.96;1786151;80;20983;-77
2022/09/12 05:41:59;;;;;;;2.67;0.70;;;;;;;11.26;95.07;98617.59;1786181;80;21047;-77
2022/09/12 05:44:27;;;;;;;0.95;0.70;;;;;;;11.23;94.98;98619.06;1786308;80;21055;-77
2022/09/12 05:46:53;;;;;;;0.75;0.75;;;;;;;11.20;94.87;98619.25;1786323;80;21230;-77
2022/09/12 05:49:20;;;;;;;0.68;0.68;;;;;;;11.14;94.91;98613.34;1786107;80;21027;-78
2022/09/12 05:51:47;;;;;;;0.90;0.70;;;;;;;11.14;95.24;98616.45;1786064;80;21011;-77
2022/09/12 05:54:16;;;;;;;2.55;0.90;;;;;;;11.12;95.28;98616.52;1786051;80;21090;-76
2022/09/12 05:56:43;;;;;;;0.95;0.78;;;;;;;11.11;95.77;98614.84;1786219;80;21056;-77
2022/09/12 05:59:16;;;;;;;0.80;0.80;;;;;;;11.12;96.22;98619.63;1785974;80;21430;-78
2022/09/12 06:01:44;;;;;;;3.45;0.93;;;;;;;11.14;96.43;98613.81;1786416;80;21094;-78
2022/09/12 06:04:11;;;;;;;2.60;0.80;;;;;;;11.17;96.65;98610.19;1785774;80;21099;-77
2022/09/12 06:06:40;;;;;;;0.80;0.60;;;;;;;11.17;96.49;98615.45;1786246;80;20992;-76
2022/09/12 06:09:07;;;;;;;4.03;0.72;;;;;;;11.14;96.09;98615.97;1785915;80;21066;-77
2022/09/12 06:11:36;;;;;;;0.62;0.60;;;;;;;11.07;95.62;98625.12;1785895;80;21263;-77
2022/09/12 06:14:02;;;;;;;3.90;0.70;;;;;;;10.97;95.78;98618.62;1786109;80;22019;-78
2022/09/12 06:16:31;;;;;;;5.10;0.80;;;;;;;10.89;96.32;98619.03;1785867;80;21106;-78
2022/09/12 06:19:01;;;;;;;0.70;0.70;;;;;;;10.86;96.53;98623.56;1785981;80;20988;-78
2022/09/12 06:21:29;;;;;;;0.78;0.62;;;;;;;10.84;96.97;98612.27;1785031;80;21176;-77
2022/09/12 06:23:57;;;;;;;0.88;0.50;;;;;;;10.85;97.15;98623.20;1785261;80;21180;-77
2022/09/12 06:26:24;;;;;;;1.77;0.85;;;;;;;10.84;96.76;98621.48;1785168;80;21062;-77
2022/09/12 06:28:52;;;;;;;2.60;0.95;;;;;;;10.78;96.62;98622.66;1785294;80;21091;-77
2022/09/12 06:31:28;;;;;;;3.65;0.82;;;;;;;10.74;96.51;98627.22;1785607;80;20968;-77
2022/09/12 06:33:55;;;;;;;2.08;1.05;;;;;;;10.73;96.50;98622.88;1785150;80;21086;-77
2022/09/12 06:36:28;;;;;;;0.80;0.80;;;;;;;10.77;96.77;98619.63;1785616;80;22082;-77
2022/09/12 06:39:06;;;;;;;1.60;1.47;;;;;;;10.86;97.01;98620.94;1785223;80;21024;-77
2022/09/12 06:41:33;;;;;;;1.80;1.32;;;;;;;10.94;97.06;98624.91;1785065;80;20999;-78
2022/09/12 06:44:00;;;;;;;1.42;1.10;;;;;;;11.03;96.92;98625.34;1785138;80;20984;-77
2022/09/12 06:46:27;;;;;;;6.03;1.72;;;;;;;11.12;96.83;98625.73;1785292;80;21514;-77
2022/09/12 06:48:58;;;;;;;3.58;1.75;;;;;;;11.19;96.74;98625.44;1785081;80;22090;-78
2022/09/12 06:51:26;;;;;;;2.45;1.32;;;;;;;11.27;96.59;98633.31;1784988;80;21087;-77
2022/09/12 06:53:56;;;;;;;1.05;0.98;;;;;;;11.32;96.56;98627.82;1785147;80;21039;-77
2022/09/12 06:56:25;;;;;;;1.10;1.00;;;;;;;11.38;96.11;98627.52;1785133;80;21059;-77
2022/09/12 06:58:53;;;;;;;1.00;0.88;;;;;;;11.46;95.89;98631.88;1785604;80;21142;-77
2022/09/12 07:01:21;;;;;;;1.42;0.93;;;;;;;11.53;95.10;98630.66;1784651;80;21229;-78
2022/09/12 07:03:50;;;;;;;2.00;0.90;;;;;;;11.59;94.57;98632.10;1785178;80;21050;-78
2022/09/12 07:06:19;;;;;;;1.37;1.00;;;;;;;11.66;93.92;98636.58;1785213;80;20992;-78
2022/09/12 07:08:47;;;;;;;1.15;0.70;;;;;;;11.72;93.55;98637.58;1785688;80;21102;-77
2022/09/12 07:11:19;;;;;;;1.85;0.90;;;;;;;11.74;92.30;98638.34;1785515;80;21078;-77
2022/09/12 07:13:48;;;;;;;3.83;0.90;;;;;;;11.78;91.80;98639.87;1785431;80;21266;-77
2022/09/12 07:16:16;;;;;;;0.82;0.80;;;;;;;11.83;91.47;98634.36;1785660;80;20996;-77
2022/09/12 07:18:45;;;;;;;1.22;0.70;;;;;;;11.92;91.24;98629.08;1785605;80;21070;-78
2022/09/12 07:21:14;;;;;;;1.55;0.80;;;;;;;12.00;90.72;98633.02;1785271;80;21091;-77
2022/09/12 07:23:41;;;;;;;0.93;0.82;;;;;;;12.08;90.12;98631.27;1785635;80;20991;-79
2022/09/12 07:26:12;;;;;;;1.57;0.80;;;;;;;12.17;90.18;98625.50;1785458;80;22132;-77
2022/09/12 07:28:40;;;;;;;1.07;0.62;;;;;;;12.30;89.44;98625.66;1785660;80;21059;-78
2022/09/12 07:31:14;;;;;;;1.95;1.35;;;;;;;12.41;88.54;98629.02;1785487;80;21023;-78
2022/09/12 07:33:41;;;;;;;1.52;1.20;;;;;;;12.49;87.37;98622.84;1785585;80;21066;-77
2022/09/12 07:36:11;;;;;;;0.90;0.90;;;;;;;12.58;86.23;98625.42;1785847;80;21023;-77
2022/09/12 07:38:38;;;;;;;1.47;0.70;;;;;;;12.63;84.79;98628.17;1785319;80;21251;-77
2022/09/12 07:41:17;;;;;;;1.30;0.80;;;;;;;12.62;84.64;98622.53;1785675;80;21138;-78
2022/09/12 07:43:44;;;;;;;1.65;0.80;;;;;;;12.58;84.88;98622.31;1785372;80;21110;-77
2022/09/12 07:46:11;;;;;;;2.22;0.75;;;;;;;12.59;84.48;98629.75;1785528;80;21114;-77
2022/09/12 07:48:38;;;;;;;0.70;0.70;;;;;;;12.62;84.46;98629.13;1785545;80;21094;-77
2022/09/12 07:51:06;;;;;;;1.95;0.70;;;;;;;12.70;83.66;98629.16;1785743;80;21236;-77
2022/09/12 07:53:39;;;;;;;1.17;0.68;;;;;;;12.74;83.04;98624.06;1785746;80;21071;-78
2022/09/12 07:56:06;;;;;;;1.45;0.90;;;;;;;12.77;82.70;98626.53;1785252;80;21091;-76
2022/09/12 07:58:35;;;;;;;1.02;0.75;;;;;;;12.83;81.13;98627.02;1785537;80;21104;-78
2022/09/12 08:01:13;;;;;;;1.00;0.90;;;;;;;12.86;80.93;98628.66;1785633;80;21035;-77
2022/09/12 08:03:42;;;;;;;0.93;0.93;;;;;;;12.89;80.80;98630.24;1781922;80;21192;-77
2022/09/12 08:06:15;;;;;;;1.22;1.12;;;;;;;12.94;80.89;98634.30;1785695;80;21075;-77
2022/09/12 08:08:41;;;;;;;1.12;1.10;;;;;;;12.98;80.59;98630.56;1785395;80;21470;-77
2022/09/12 08:11:12;;;;;;;2.62;1.20;;;;;;;13.04;80.94;98626.70;1785769;80;21565;-77
2022/09/12 08:13:41;;;;;;;2.33;1.07;;;;;;;13.06;79.60;98627.94;1785579;80;21034;-78
2022/09/12 08:16:15;;;;;;;1.90;1.50;;;;;;;13.01;80.28;98630.39;1785413;80;21259;-79
2022/09/12 08:18:41;;;;;;;3.55;0.93;;;;;;;13.06;81.01;98625.30;1785014;80;21050;-77
2022/09/12 08:21:12;;;;;;;1.37;0.88;;;;;;;13.12;80.30;98630.22;1784123;80;21024;-77
2022/09/12 08:23:39;;;;;;;2.47;1.10;;;;;;;13.10;80.05;98625.03;1782084;80;21143;-78
2022/09/12 08:26:06;;;;;;;3.45;1.20;;;;;;;13.18;80.39;98621.94;1782507;80;21011;-78
2022/09/12 08:28:34;;;;;;;1.30;1.20;;;;;;;13.28;79.44;98624.41;1782116;80;21133;-77
2022/09/12 08:31:03;;;;;;;1.60;1.50;;;;;;;13.35;79.40;98621.80;1782296;80;22089;-77
2022/09/12 08:33:33;;;;;;;0.93;0.93;;;;;;;13.46;79.27;98625.58;1782791;80;21012;-76
2022/09/12 08:36:12;;;;;;;10.85;6.37;;;;;;;13.49;77.50;98616.99;1782587;80;20964;-76
2022/09/12 08:38:42;;;;;;;3.50;2.55;;;;;;;13.53;77.65;98615.01;1782571;80;20985;-78
2022/09/12 08:41:41;;;;;;;1.40;1.30;;;;;;;13.58;78.15;98621.34;1782220;80;21696;-76
2022/09/12 08:44:28;;;;;;;5.08;1.50;;;;;;;13.49;76.91;98616.99;1782496;80;21121;-77
2022/09/12 08:47:32;;;;;;;2.35;1.10;;;;;;;13.40;77.90;98617.56;1782213;80;21494;-76
2022/09/12 08:50:14;;;;;;;1.30;1.22;;;;;;;13.43;77.92;98620.48;1782282;80;21070;-77
2022/09/12 08:53:02;;;;;;;1.52;1.42;;;;;;;13.46;77.55;98613.69;1782326;80;21086;-78
2022/09/12 08:55:46;;;;;;;2.25;1.40;;;;;;;13.46;76.91;98614.53;1782815;80;21112;-77
2022/09/12 08:58:15;;;;;;;1.60;1.50;;;;;;;13.55;76.77;98618.43;1773124;80;21062;-77
2022/09/12 09:01:08;;;;;;;1.57;1.40;;;;;;;13.60;76.62;98611.07;1782877;80;21160;-77
2022/09/12 09:04:06;;;;;;;1.35;1.25;;;;;;;13.66;76.64;98613.31;1782515;80;21121;-77
2022/09/12 09:06:58;;;;;;;3.67;1.40;;;;;;;13.72;76.77;98606.33;1782780;80;21471;-76
2022/09/12 09:09:39;;;;;;;1.05;1.05;;;;;;;13.89;76.92;98604.44;1782050;80;21866;-78
2022/09/12 09:12:30;;;;;;;1.40;1.30;;;;;;;14.01;75.94;98609.42;1782387;80;21082;-77
2022/09/12 09:15:23;;;;;;;1.40;1.30;;;;;;;14.07;75.02;98607.24;1782047;80;21109;-78
2022/09/12 09:17:54;;;;;;;2.45;1.45;;;;;;;14.11;74.51;98610.05;1782290;80;21062;-78
2022/09/12 09:20:54;;;;;;;1.80;1.12;;;;;;;14.18;74.53;98613.64;1782228;80;21510;-76
2022/09/12 09:23:35;;;;;;;1.10;1.10;;;;;;;14.19;72.78;98616.64;1782162;80;21249;-77
2022/09/12 09:26:13;;;;;;;1.40;1.30;;;;;;;14.15;73.08;98615.16;1781636;80;21050;-77
2022/09/12 09:28:51;;;;;;;2.37;1.15;;;;;;;14.08;73.13;98614.21;1782549;80;21177;-77
2022/09/12 09:31:21;;;;;;;2.30;1.30;;;;;;;14.10;73.82;98617.63;1782283;80;21067;-78
2022/09/12 09:33:54;;;;;;;1.35;1.22;;;;;;;14.18;73.30;98621.58;1782643;80;21028;-77
2022/09/12 09:37:00;;;;;;;1.70;1.12;;;;;;;14.20;73.25;98621.00;1782259;80;21323;-77
2022/09/12 09:39:49;;;;;;;1.40;1.30;;;;;;;14.21;73.03;98614.77;1782453;80;21022;-76
2022/09/12 09:42:38;;;;;;;1.32;1.20;;;;;;;14.20;72.89;98626.29;1782379;80;21047;-77
2022/09/12 09:45:15;;;;;;;3.83;1.40;;;;;;;14.14;72.97;98620.93;1782665;80;21098;-77
2022/09/12 09:48:04;;;;;;;1.10;1.10;;;;;;;14.15;73.31;98627.90;1782190;80;21075;-78
2022/09/12 09:50:32;;;;;;;1.30;1.20;;;;;;;14.15;72.77;98624.41;1782168;80;21093;-77
2022/09/12 09:52:59;;;;;;;1.90;1.37;;;;;;;14.16;72.85;98623.48;1781973;80;21070;-78
2022/09/12 09:55:32;;;;;;;2.35;1.00;;;;;;;14.16;72.61;98627.45;1782151;80;21071;-77
2022/09/12 09:57:59;;;;;;;2.90;1.00;;;;;;;14.12;72.61;98628.95;1782272;80;21074;-77
2022/09/12 10:00:33;;;;;;;1.20;1.10;;;;;;;14.04;73.00;98627.27;1782393;80;21044;-78
2022/09/12 10:03:22;;;;;;;4.10;1.00;;;;;;;14.01;72.92;98624.81;1781206;80;21224;-77
2022/09/12 10:05:51;;;;;;;2.70;1.00;;;;;;;14.01;73.14;98629.27;1782168;80;20983;-78
2022/09/12 10:08:34;;;;;;;1.30;1.20;;;;;;;13.97;72.96;98632.58;1782503;80;21058;-76
2022/09/12 10:11:21;;;;;;;1.45;1.30;;;;;;;13.92;73.06;98634.66;1756441;80;21526;-77
2022/09/12 10:13:55;;;;;;;3.52;1.40;;;;;;;13.79;73.20;98634.56;1782716;80;21707;-77
2022/09/12 10:16:35;;;;;;;1.67;1.57;;;;;;;13.67;74.64;98644.10;1782447;80;21873;-77
2022/09/12 10:19:03;;;;;;;1.42;1.32;;;;;;;13.54;76.02;98645.79;1782055;80;20992;-77
2022/09/12 10:21:36;;;;;;;1.42;1.32;;;;;;;13.37;77.03;98647.66;1783230;80;21047;-77
2022/09/12 10:24:22;;;;;;;2.87;1.37;;;;;;;13.24;78.03;98650.61;1785288;80;22086;-77
2022/09/12 10:26:59;;;;;;;2.08;1.40;;;;;;;13.14;78.22;98646.82;1785244;80;20979;-77
2022/09/12 10:29:31;;;;;;;1.27;1.17;;;;;;;13.07;78.66;98648.13;1782975;80;21236;-76
2022/09/12 10:32:03;;;;;;;1.90;1.22;;;;;;;13.05;79.22;98652.66;1785506;80;20996;-77
2022/09/12 10:34:34;;;;;;;1.77;1.20;;;;;;;13.06;79.35;98649.06;1785037;80;21193;-77
2022/09/12 10:37:05;;;;;;;1.45;1.20;;;;;;;13.06;78.89;98649.06;1785218;80;21006;-77
2022/09/12 10:39:33;;;;;;;1.15;1.07;;;;;;;13.08;79.05;98653.77;1785272;80;21004;-77
2022/09/12 10:42:00;;;;;;;2.85;1.27;;;;;;;13.14;78.78;98653.42;1785499;80;21211;-76
2022/09/12 10:44:29;;;;;;;2.40;1.12;;;;;;;13.16;78.63;98650.21;1785094;80;21647;-78
2022/09/12 10:46:57;;;;;;;2.10;1.72;;;;;;;13.18;78.38;98654.96;1785591;80;21110;-77
2022/09/12 10:49:30;;;;;;;2.10;1.52;;;;;;;13.11;77.88;98656.23;1785549;80;21031;-76
2022/09/12 10:51:59;;;;;;;4.58;1.55;;;;;;;12.98;78.18;98662.73;1785727;80;21521;-76
2022/09/12 10:54:27;;;;;;;2.25;1.85;;;;;;;12.87;78.52;98664.66;1782518;80;21597;-77
2022/09/12 10:57:22;;;;;;;3.60;1.87;;;;;;;12.77;78.95;98661.69;1785476;80;21494;-76
2022/09/12 11:00:14;;;;;;;4.47;2.40;;;;;;;12.73;79.30;98665.93;1785218;80;21039;-77
2022/09/12 11:02:59;;;;;;;2.02;1.92;;;;;;;12.71;79.82;98669.10;1785369;80;21024;-77
2022/09/12 11:05:43;;;;;;;2.83;2.10;;;;;;;12.66;80.35;98673.80;1782699;80;21106;-76
2022/09/12 11:08:54;;;;;;;2.30;1.83;;;;;;;12.60;80.94;98670.56;1785501;80;21258;-77
2022/09/12 11:11:55;;;;;;;1.95;1.80;;;;;;;12.56;81.13;98671.69;1785519;80;21052;-77
2022/09/12 11:14:33;;;;;;;2.33;1.98;;;;;;;12.52;81.36;98670.14;1785387;80;21129;-77
2022/09/12 11:17:12;;;;;;;1.77;1.67;;;;;;;12.53;82.27;98669.22;1785326;80;21042;-76
2022/09/12 11:20:11;;;;;;;2.22;1.95;;;;;;;12.57;82.40;98669.41;1785586;80;21125;-77
2022/09/12 11:22:52;;;;;;;2.65;2.00;;;;;;;12.57;81.99;98670.73;1785605;80;21107;-78
2022/09/12 11:25:41;;;;;;;2.25;1.77;;;;;;;12.59;81.94;98676.80;1784512;80;21082;-77
2022/09/12 11:28:23;;;;;;;2.70;1.75;;;;;;;12.60;81.98;98675.84;1786215;80;21038;-77
2022/09/12 11:31:07;;;;;;;2.45;1.82;;;;;;;12.62;81.83;98679.27;1785833;80;21022;-78
2022/09/12 11:33:42;;;;;;;2.35;1.70;;;;;;;12.70;81.87;98675.34;1775513;80;20988;-76
2022/09/12 11:36:40;;;;;;;4.05;1.62;;;;;;;12.80;81.91;98668.59;1786324;80;21140;-77
2022/09/12 11:39:16;;;;;;;3.25;2.37;;;;;;;12.91;81.71;98668.83;1786074;80;21118;-78
2022/09/12 11:41:47;;;;;;;3.30;2.98;;;;;;;13.04;81.51;98668.95;1784515;80;21054;-77
2022/09/12 11:44:22;;;;;;;3.85;2.92;;;;;;;13.12;80.87;98667.20;1786095;80;21070;-78
2022/09/12 11:46:48;;;;;;;6.10;3.20;;;;;;;13.18;80.32;98666.37;1785884;80;21519;-77
2022/09/12 11:49:32;;;;;;;5.65;3.72;;;;;;;13.25;79.80;98676.10;1786227;80;21546;-77
2022/09/12 11:52:23;;;;;;;6.20;3.17;;;;;;;13.28;78.83;98679.89;1785802;80;20988;-77
2022/09/12 11:55:11;;;;;;;3.62;2.60;;;;;;;13.29;78.74;98673.64;1785930;80;21557;-77
2022/09/12 11:57:55;;;;;;;5.78;2.77;;;;;;;13.35;78.48;98677.28;1786077;80;21007;-77
2022/09/12 12:00:40;;;;;;;5.05;2.42;;;;;;;13.40;78.29;98677.47;1786091;80;21110;-77